sensor_id;sensor_type;location;lat;lon;timestamp;P1;durP1;ratioP1;P2;durP2;ratioP2
14883;SDS011;7534;50.762;7.000;2022-10-18T00:01:53;11.15;;;8.82;;
14883;SDS011;7534;50.762;7.000;2022-10-18T00:04:19;13.18;;;8.73;;
14883;SDS011;7534;50.762;7.000;2022-10-18T00:06:45;11.40;;;8.45;;
14883;SDS011;7534;50.762;7.000;2022-10-18T00:09:11;12.40;;;9.02;;
14883;SDS011;7534;50.762;7.000;2022-10-18T00:11:37;14.15;;;9.25;;
14883;SDS011;7534;50.762;7.000;2022-10-18T00:14:03;12.90;;;8.52;;
14883;SDS011;7534;50.762;7.000;2022-10-18T00:16:29;14.07;;;9.80;;
14883;SDS011;7534;50.762;7.000;2022-10-18T00:18:55;14.20;;;9.40;;
14883;SDS011;7534;50.762;7.000;2022-10-18T00:21:21;13.00;;;9.87;;
14883;SDS011;7534;50.762;7.000;2022-10-18T00:23:48;12.60;;;9.07;;
14883;SDS011;7534;50.762;7.000;2022-10-18T00:26:19;11.43;;;9.43;;
14883;SDS011;7534;50.762;7.000;2022-10-18T00:28:51;14.20;;;9.70;;
14883;SDS011;7534;50.762;7.000;2022-10-18T00:31:22;11.88;;;9.15;;
14883;SDS011;7534;50.762;7.000;2022-10-18T00:33:58;14.80;;;8.83;;
14883;SDS011;7534;50.762;7.000;2022-10-18T00:36:28;15.83;;;10.70;;
14883;SDS011;7534;50.762;7.000;2022-10-18T00:38:57;17.27;;;10.67;;
14883;SDS011;7534;50.762;7.000;2022-10-18T00:41:24;14.20;;;10.10;;
14883;SDS011;7534;50.762;7.000;2022-10-18T00:43:58;14.60;;;9.83;;
14883;SDS011;7534;50.762;7.000;2022-10-18T00:46:31;18.20;;;10.50;;
14883;SDS011;7534;50.762;7.000;2022-10-18T00:49:25;19.13;;;11.13;;
14883;SDS011;7534;50.762;7.000;2022-10-18T00:52:02;16.67;;;10.97;;
14883;SDS011;7534;50.762;7.000;2022-10-18T00:54:32;17.65;;;10.85;;
14883;SDS011;7534;50.762;7.000;2022-10-18T00:57:02;18.33;;;10.97;;
14883;SDS011;7534;50.762;7.000;2022-10-18T00:59:30;18.00;;;10.30;;
14883;SDS011;7534;50.762;7.000;2022-10-18T01:01:57;18.13;;;11.00;;
14883;SDS011;7534;50.762;7.000;2022-10-18T01:04:23;17.23;;;11.17;;
14883;SDS011;7534;50.762;7.000;2022-10-18T01:07:02;18.97;;;11.33;;
14883;SDS011;7534;50.762;7.000;2022-10-18T01:09:57;16.37;;;10.60;;
14883;SDS011;7534;50.762;7.000;2022-10-18T01:15:49;20.40;;;11.90;;
14883;SDS011;7534;50.762;7.000;2022-10-18T01:25:34;30.02;;;13.38;;
14883;SDS011;7534;50.762;7.000;2022-10-18T01:28:37;25.05;;;14.60;;
14883;SDS011;7534;50.762;7.000;2022-10-18T01:31:59;26.70;;;14.70;;
14883;SDS011;7534;50.762;7.000;2022-10-18T01:34:30;24.53;;;15.23;;
14883;SDS011;7534;50.762;7.000;2022-10-18T01:37:00;34.90;;;15.87;;
14883;SDS011;7534;50.762;7.000;2022-10-18T01:39:36;31.25;;;16.85;;
14883;SDS011;7534;50.762;7.000;2022-10-18T01:42:07;32.17;;;18.10;;
14883;SDS011;7534;50.762;7.000;2022-10-18T01:47:08;36.58;;;17.15;;
14883;SDS011;7534;50.762;7.000;2022-10-18T01:49:37;35.47;;;18.20;;
14883;SDS011;7534;50.762;7.000;2022-10-18T01:52:02;27.13;;;14.53;;
14883;SDS011;7534;50.762;7.000;2022-10-18T01:54:30;35.57;;;15.53;;
14883;SDS011;7534;50.762;7.000;2022-10-18T02:00:09;35.50;;;16.67;;
14883;SDS011;7534;50.762;7.000;2022-10-18T02:03:42;31.67;;;16.13;;
14883;SDS011;7534;50.762;7.000;2022-10-18T02:08:34;30.67;;;16.02;;
14883;SDS011;7534;50.762;7.000;2022-10-18T02:11:12;37.85;;;16.77;;
14883;SDS011;7534;50.762;7.000;2022-10-18T02:13:41;34.22;;;17.33;;
14883;SDS011;7534;50.762;7.000;2022-10-18T02:16:22;32.42;;;16.75;;
14883;SDS011;7534;50.762;7.000;2022-10-18T02:19:04;33.90;;;17.30;;
14883;SDS011;7534;50.762;7.000;2022-10-18T02:21:56;26.92;;;14.82;;
14883;SDS011;7534;50.762;7.000;2022-10-18T02:24:32;25.00;;;14.90;;
14883;SDS011;7534;50.762;7.000;2022-10-18T02:27:03;28.92;;;14.77;;
14883;SDS011;7534;50.762;7.000;2022-10-18T02:29:29;28.90;;;13.82;;
14883;SDS011;7534;50.762;7.000;2022-10-18T02:32:03;25.60;;;13.75;;
14883;SDS011;7534;50.762;7.000;2022-10-18T02:34:41;25.70;;;14.07;;
14883;SDS011;7534;50.762;7.000;2022-10-18T02:37:14;26.17;;;14.57;;
14883;SDS011;7534;50.762;7.000;2022-10-18T02:39:42;27.90;;;15.00;;
14883;SDS011;7534;50.762;7.000;2022-10-18T02:42:14;25.30;;;14.10;;
14883;SDS011;7534;50.762;7.000;2022-10-18T02:44:40;25.63;;;15.82;;
14883;SDS011;7534;50.762;7.000;2022-10-18T02:47:07;27.35;;;15.60;;
14883;SDS011;7534;50.762;7.000;2022-10-18T02:49:35;28.83;;;15.23;;
14883;SDS011;7534;50.762;7.000;2022-10-18T02:52:00;27.27;;;15.27;;
14883;SDS011;7534;50.762;7.000;2022-10-18T02:54:26;36.20;;;17.60;;
14883;SDS011;7534;50.762;7.000;2022-10-18T02:56:52;30.93;;;16.20;;
14883;SDS011;7534;50.762;7.000;2022-10-18T02:59:18;31.40;;;16.63;;
14883;SDS011;7534;50.762;7.000;2022-10-18T03:01:43;38.50;;;16.43;;
14883;SDS011;7534;50.762;7.000;2022-10-18T03:04:09;31.53;;;16.60;;
14883;SDS011;7534;50.762;7.000;2022-10-18T03:06:35;33.67;;;17.80;;
14883;SDS011;7534;50.762;7.000;2022-10-18T03:09:02;34.90;;;17.15;;
14883;SDS011;7534;50.762;7.000;2022-10-18T03:11:29;30.13;;;16.42;;
14883;SDS011;7534;50.762;7.000;2022-10-18T03:13:56;31.67;;;16.85;;
14883;SDS011;7534;50.762;7.000;2022-10-18T03:16:22;37.73;;;17.57;;
14883;SDS011;7534;50.762;7.000;2022-10-18T03:18:47;32.90;;;17.20;;
14883;SDS011;7534;50.762;7.000;2022-10-18T03:21:13;30.55;;;16.98;;
14883;SDS011;7534;50.762;7.000;2022-10-18T03:23:39;31.05;;;16.00;;
14883;SDS011;7534;50.762;7.000;2022-10-18T03:26:06;39.50;;;18.60;;
14883;SDS011;7534;50.762;7.000;2022-10-18T03:28:32;33.63;;;15.98;;
14883;SDS011;7534;50.762;7.000;2022-10-18T03:30:58;32.20;;;17.00;;
14883;SDS011;7534;50.762;7.000;2022-10-18T03:33:26;33.90;;;17.20;;
14883;SDS011;7534;50.762;7.000;2022-10-18T03:35:52;39.53;;;18.00;;
14883;SDS011;7534;50.762;7.000;2022-10-18T03:38:18;41.60;;;17.37;;
14883;SDS011;7534;50.762;7.000;2022-10-18T03:40:43;42.23;;;18.47;;
14883;SDS011;7534;50.762;7.000;2022-10-18T03:43:09;37.40;;;17.27;;
14883;SDS011;7534;50.762;7.000;2022-10-18T03:45:35;40.23;;;17.90;;
14883;SDS011;7534;50.762;7.000;2022-10-18T03:48:00;36.30;;;18.23;;
14883;SDS011;7534;50.762;7.000;2022-10-18T03:50:26;41.40;;;17.87;;
14883;SDS011;7534;50.762;7.000;2022-10-18T03:52:52;40.90;;;17.70;;
14883;SDS011;7534;50.762;7.000;2022-10-18T03:55:19;37.90;;;18.60;;
14883;SDS011;7534;50.762;7.000;2022-10-18T03:57:50;40.37;;;18.00;;
14883;SDS011;7534;50.762;7.000;2022-10-18T04:00:15;39.73;;;17.37;;
14883;SDS011;7534;50.762;7.000;2022-10-18T04:02:41;43.67;;;16.73;;
14883;SDS011;7534;50.762;7.000;2022-10-18T04:05:07;43.87;;;18.00;;
14883;SDS011;7534;50.762;7.000;2022-10-18T04:07:34;46.00;;;18.53;;
14883;SDS011;7534;50.762;7.000;2022-10-18T04:10:00;53.53;;;18.20;;
14883;SDS011;7534;50.762;7.000;2022-10-18T04:12:26;45.40;;;17.60;;
14883;SDS011;7534;50.762;7.000;2022-10-18T04:14:52;44.73;;;18.73;;
14883;SDS011;7534;50.762;7.000;2022-10-18T04:17:17;49.13;;;18.20;;
14883;SDS011;7534;50.762;7.000;2022-10-18T04:19:44;51.88;;;17.00;;
14883;SDS011;7534;50.762;7.000;2022-10-18T04:22:10;40.57;;;16.87;;
14883;SDS011;7534;50.762;7.000;2022-10-18T04:24:36;43.83;;;17.52;;
14883;SDS011;7534;50.762;7.000;2022-10-18T04:27:03;37.73;;;16.20;;
14883;SDS011;7534;50.762;7.000;2022-10-18T04:29:30;35.67;;;16.60;;
14883;SDS011;7534;50.762;7.000;2022-10-18T04:31:56;38.67;;;16.27;;
14883;SDS011;7534;50.762;7.000;2022-10-18T04:34:21;42.65;;;16.73;;
14883;SDS011;7534;50.762;7.000;2022-10-18T04:36:47;38.17;;;15.80;;
14883;SDS011;7534;50.762;7.000;2022-10-18T04:39:14;37.37;;;16.93;;
14883;SDS011;7534;50.762;7.000;2022-10-18T04:41:39;36.20;;;16.73;;
14883;SDS011;7534;50.762;7.000;2022-10-18T04:44:06;43.50;;;16.77;;
14883;SDS011;7534;50.762;7.000;2022-10-18T04:46:32;41.20;;;17.37;;
14883;SDS011;7534;50.762;7.000;2022-10-18T04:48:58;40.17;;;15.50;;
14883;SDS011;7534;50.762;7.000;2022-10-18T04:51:26;35.85;;;15.68;;
14883;SDS011;7534;50.762;7.000;2022-10-18T04:57:19;34.05;;;16.42;;
14883;SDS011;7534;50.762;7.000;2022-10-18T04:59:46;35.27;;;15.87;;
14883;SDS011;7534;50.762;7.000;2022-10-18T05:02:12;35.88;;;16.27;;
14883;SDS011;7534;50.762;7.000;2022-10-18T05:04:38;32.07;;;16.50;;
14883;SDS011;7534;50.762;7.000;2022-10-18T05:07:03;36.50;;;15.93;;
14883;SDS011;7534;50.762;7.000;2022-10-18T05:09:31;53.03;;;17.17;;
14883;SDS011;7534;50.762;7.000;2022-10-18T05:11:57;41.77;;;16.90;;
14883;SDS011;7534;50.762;7.000;2022-10-18T05:14:23;33.43;;;15.83;;
14883;SDS011;7534;50.762;7.000;2022-10-18T05:16:48;32.67;;;16.17;;
14883;SDS011;7534;50.762;7.000;2022-10-18T05:19:14;33.50;;;15.63;;
14883;SDS011;7534;50.762;7.000;2022-10-18T05:21:40;41.77;;;16.77;;
14883;SDS011;7534;50.762;7.000;2022-10-18T05:24:06;48.70;;;16.53;;
14883;SDS011;7534;50.762;7.000;2022-10-18T05:26:31;37.27;;;16.17;;
14883;SDS011;7534;50.762;7.000;2022-10-18T05:28:57;31.60;;;15.53;;
14883;SDS011;7534;50.762;7.000;2022-10-18T05:31:23;36.23;;;15.83;;
14883;SDS011;7534;50.762;7.000;2022-10-18T05:33:48;47.30;;;16.17;;
14883;SDS011;7534;50.762;7.000;2022-10-18T05:36:14;45.10;;;16.23;;
14883;SDS011;7534;50.762;7.000;2022-10-18T05:38:40;44.43;;;16.33;;
14883;SDS011;7534;50.762;7.000;2022-10-18T05:41:06;35.03;;;15.30;;
14883;SDS011;7534;50.762;7.000;2022-10-18T05:43:32;32.10;;;16.37;;
14883;SDS011;7534;50.762;7.000;2022-10-18T05:45:58;31.60;;;15.95;;
14883;SDS011;7534;50.762;7.000;2022-10-18T05:48:24;37.80;;;16.70;;
14883;SDS011;7534;50.762;7.000;2022-10-18T05:50:50;33.63;;;15.97;;
14883;SDS011;7534;50.762;7.000;2022-10-18T05:53:16;41.50;;;15.63;;
14883;SDS011;7534;50.762;7.000;2022-10-18T05:55:41;36.95;;;15.98;;
14883;SDS011;7534;50.762;7.000;2022-10-18T05:58:07;34.28;;;16.25;;
14883;SDS011;7534;50.762;7.000;2022-10-18T06:00:33;36.50;;;16.30;;
14883;SDS011;7534;50.762;7.000;2022-10-18T06:02:58;35.72;;;15.13;;
14883;SDS011;7534;50.762;7.000;2022-10-18T06:05:24;34.00;;;15.70;;
14883;SDS011;7534;50.762;7.000;2022-10-18T06:07:50;33.97;;;15.47;;
14883;SDS011;7534;50.762;7.000;2022-10-18T06:10:15;33.13;;;15.97;;
14883;SDS011;7534;50.762;7.000;2022-10-18T06:12:41;37.03;;;15.17;;
14883;SDS011;7534;50.762;7.000;2022-10-18T06:15:07;34.80;;;15.83;;
14883;SDS011;7534;50.762;7.000;2022-10-18T06:17:33;43.33;;;15.95;;
14883;SDS011;7534;50.762;7.000;2022-10-18T06:19:59;34.35;;;15.15;;
14883;SDS011;7534;50.762;7.000;2022-10-18T06:22:25;34.30;;;15.82;;
14883;SDS011;7534;50.762;7.000;2022-10-18T06:24:50;32.90;;;15.53;;
14883;SDS011;7534;50.762;7.000;2022-10-18T06:27:19;34.10;;;15.68;;
14883;SDS011;7534;50.762;7.000;2022-10-18T06:29:46;32.42;;;15.63;;
14883;SDS011;7534;50.762;7.000;2022-10-18T06:32:12;31.92;;;15.27;;
14883;SDS011;7534;50.762;7.000;2022-10-18T06:34:37;37.65;;;16.35;;
14883;SDS011;7534;50.762;7.000;2022-10-18T06:37:03;42.40;;;16.42;;
14883;SDS011;7534;50.762;7.000;2022-10-18T06:39:29;40.25;;;15.45;;
14883;SDS011;7534;50.762;7.000;2022-10-18T06:41:54;31.13;;;16.02;;
14883;SDS011;7534;50.762;7.000;2022-10-18T06:44:20;37.28;;;16.65;;
14883;SDS011;7534;50.762;7.000;2022-10-18T06:46:46;33.60;;;18.13;;
14883;SDS011;7534;50.762;7.000;2022-10-18T06:49:13;28.83;;;16.23;;
14883;SDS011;7534;50.762;7.000;2022-10-18T06:51:40;32.80;;;16.60;;
14883;SDS011;7534;50.762;7.000;2022-10-18T06:54:08;31.70;;;15.77;;
14883;SDS011;7534;50.762;7.000;2022-10-18T06:56:35;31.10;;;15.65;;
14883;SDS011;7534;50.762;7.000;2022-10-18T06:59:01;35.88;;;15.38;;
14883;SDS011;7534;50.762;7.000;2022-10-18T07:01:28;38.85;;;15.73;;
14883;SDS011;7534;50.762;7.000;2022-10-18T07:03:54;26.05;;;15.20;;
14883;SDS011;7534;50.762;7.000;2022-10-18T07:06:20;30.80;;;14.50;;
14883;SDS011;7534;50.762;7.000;2022-10-18T07:08:48;33.05;;;14.02;;
14883;SDS011;7534;50.762;7.000;2022-10-18T07:11:19;25.30;;;14.38;;
14883;SDS011;7534;50.762;7.000;2022-10-18T07:13:49;30.60;;;13.80;;
14883;SDS011;7534;50.762;7.000;2022-10-18T07:16:16;28.08;;;14.48;;
14883;SDS011;7534;50.762;7.000;2022-10-18T07:18:44;24.20;;;14.35;;
14883;SDS011;7534;50.762;7.000;2022-10-18T07:21:14;29.52;;;14.63;;
14883;SDS011;7534;50.762;7.000;2022-10-18T07:23:46;38.27;;;14.93;;
14883;SDS011;7534;50.762;7.000;2022-10-18T07:26:17;41.05;;;18.98;;
14883;SDS011;7534;50.762;7.000;2022-10-18T07:28:56;34.67;;;18.13;;
14883;SDS011;7534;50.762;7.000;2022-10-18T07:32:06;28.95;;;15.20;;
14883;SDS011;7534;50.762;7.000;2022-10-18T07:38:06;27.70;;;13.48;;
14883;SDS011;7534;50.762;7.000;2022-10-18T07:40:48;29.20;;;15.50;;
14883;SDS011;7534;50.762;7.000;2022-10-18T10:10:45;39.72;;;23.10;;
14883;SDS011;7534;50.762;7.000;2022-10-18T10:13:19;35.00;;;18.25;;
14883;SDS011;7534;50.762;7.000;2022-10-18T10:16:01;35.88;;;18.25;;
14883;SDS011;7534;50.762;7.000;2022-10-18T10:18:33;38.75;;;22.52;;
14883;SDS011;7534;50.762;7.000;2022-10-18T10:21:08;31.50;;;18.65;;
14883;SDS011;7534;50.762;7.000;2022-10-18T10:26:26;31.10;;;17.90;;
14883;SDS011;7534;50.762;7.000;2022-10-18T10:28:56;29.25;;;17.80;;
14883;SDS011;7534;50.762;7.000;2022-10-18T10:31:29;28.33;;;16.63;;
14883;SDS011;7534;50.762;7.000;2022-10-18T10:34:00;25.52;;;16.15;;
14883;SDS011;7534;50.762;7.000;2022-10-18T10:36:32;26.65;;;16.02;;
14883;SDS011;7534;50.762;7.000;2022-10-18T10:39:03;26.92;;;15.63;;
14883;SDS011;7534;50.762;7.000;2022-10-18T10:41:42;31.05;;;20.10;;
14883;SDS011;7534;50.762;7.000;2022-10-18T10:44:18;30.23;;;20.52;;
14883;SDS011;7534;50.762;7.000;2022-10-18T10:46:50;21.25;;;15.48;;
14883;SDS011;7534;50.762;7.000;2022-10-18T10:49:21;22.25;;;14.63;;
14883;SDS011;7534;50.762;7.000;2022-10-18T10:52:06;22.25;;;15.15;;
14883;SDS011;7534;50.762;7.000;2022-10-18T10:54:44;22.17;;;14.75;;
14883;SDS011;7534;50.762;7.000;2022-10-18T11:04:23;22.85;;;15.05;;
14883;SDS011;7534;50.762;7.000;2022-10-18T11:35:47;23.17;;;17.95;;
14883;SDS011;7534;50.762;7.000;2022-10-18T13:45:59;36.25;;;25.80;;
14883;SDS011;7534;50.762;7.000;2022-10-18T17:47:40;47.90;;;26.43;;
14883;SDS011;7534;50.762;7.000;2022-10-18T17:50:05;40.17;;;25.27;;
14883;SDS011;7534;50.762;7.000;2022-10-18T17:52:33;52.20;;;25.07;;
14883;SDS011;7534;50.762;7.000;2022-10-18T17:55:00;47.67;;;26.60;;
14883;SDS011;7534;50.762;7.000;2022-10-18T17:57:26;50.63;;;25.97;;
14883;SDS011;7534;50.762;7.000;2022-10-18T17:59:52;49.67;;;27.33;;
14883;SDS011;7534;50.762;7.000;2022-10-18T18:02:19;48.73;;;26.70;;
14883;SDS011;7534;50.762;7.000;2022-10-18T18:04:46;51.03;;;24.77;;
14883;SDS011;7534;50.762;7.000;2022-10-18T18:07:12;40.37;;;23.47;;
14883;SDS011;7534;50.762;7.000;2022-10-18T18:09:38;45.60;;;24.67;;
14883;SDS011;7534;50.762;7.000;2022-10-18T18:12:04;49.03;;;24.87;;
14883;SDS011;7534;50.762;7.000;2022-10-18T18:14:31;49.80;;;24.10;;
14883;SDS011;7534;50.762;7.000;2022-10-18T18:16:58;47.07;;;25.10;;
14883;SDS011;7534;50.762;7.000;2022-10-18T18:19:29;47.60;;;24.13;;
14883;SDS011;7534;50.762;7.000;2022-10-18T18:21:55;51.43;;;24.67;;
14883;SDS011;7534;50.762;7.000;2022-10-18T18:24:23;46.43;;;22.70;;
14883;SDS011;7534;50.762;7.000;2022-10-18T18:26:52;45.90;;;23.30;;
14883;SDS011;7534;50.762;7.000;2022-10-18T18:29:21;39.40;;;20.67;;
14883;SDS011;7534;50.762;7.000;2022-10-18T18:31:54;41.10;;;20.90;;
14883;SDS011;7534;50.762;7.000;2022-10-18T18:34:20;41.70;;;20.27;;
14883;SDS011;7534;50.762;7.000;2022-10-18T18:36:48;40.70;;;19.53;;
14883;SDS011;7534;50.762;7.000;2022-10-18T18:39:18;41.00;;;21.13;;
14883;SDS011;7534;50.762;7.000;2022-10-18T18:41:53;38.83;;;19.83;;
14883;SDS011;7534;50.762;7.000;2022-10-18T18:44:21;42.60;;;20.67;;
14883;SDS011;7534;50.762;7.000;2022-10-18T18:46:51;41.93;;;23.13;;
14883;SDS011;7534;50.762;7.000;2022-10-18T18:49:16;50.10;;;25.23;;
14883;SDS011;7534;50.762;7.000;2022-10-18T18:51:45;43.13;;;25.10;;
14883;SDS011;7534;50.762;7.000;2022-10-18T18:54:12;49.57;;;27.50;;
14883;SDS011;7534;50.762;7.000;2022-10-18T18:56:42;56.37;;;26.67;;
14883;SDS011;7534;50.762;7.000;2022-10-18T18:59:10;45.13;;;21.33;;
14883;SDS011;7534;50.762;7.000;2022-10-18T19:01:41;43.53;;;20.63;;
14883;SDS011;7534;50.762;7.000;2022-10-18T19:04:09;37.00;;;18.67;;
14883;SDS011;7534;50.762;7.000;2022-10-18T19:06:42;48.63;;;21.93;;
14883;SDS011;7534;50.762;7.000;2022-10-18T19:09:12;49.53;;;21.30;;
14883;SDS011;7534;50.762;7.000;2022-10-18T19:11:48;45.67;;;20.47;;
14883;SDS011;7534;50.762;7.000;2022-10-18T19:14:18;39.43;;;19.73;;
14883;SDS011;7534;50.762;7.000;2022-10-18T19:19:20;39.53;;;19.50;;
14883;SDS011;7534;50.762;7.000;2022-10-18T19:21:49;46.63;;;20.70;;
14883;SDS011;7534;50.762;7.000;2022-10-18T19:24:18;47.13;;;20.30;;
14883;SDS011;7534;50.762;7.000;2022-10-18T19:26:53;41.47;;;19.30;;
14883;SDS011;7534;50.762;7.000;2022-10-18T19:29:25;39.47;;;19.20;;
14883;SDS011;7534;50.762;7.000;2022-10-18T19:31:55;44.10;;;19.50;;
14883;SDS011;7534;50.762;7.000;2022-10-18T19:34:27;45.90;;;20.30;;
14883;SDS011;7534;50.762;7.000;2022-10-18T19:36:56;47.10;;;19.80;;
14883;SDS011;7534;50.762;7.000;2022-10-18T19:39:23;42.97;;;19.97;;
14883;SDS011;7534;50.762;7.000;2022-10-18T19:41:52;42.03;;;18.60;;
14883;SDS011;7534;50.762;7.000;2022-10-18T19:44:24;48.77;;;18.97;;
14883;SDS011;7534;50.762;7.000;2022-10-18T19:46:53;45.43;;;20.80;;
14883;SDS011;7534;50.762;7.000;2022-10-18T19:49:19;47.67;;;20.90;;
14883;SDS011;7534;50.762;7.000;2022-10-18T19:51:45;43.97;;;20.47;;
14883;SDS011;7534;50.762;7.000;2022-10-18T19:54:13;39.97;;;18.93;;
14883;SDS011;7534;50.762;7.000;2022-10-18T19:56:40;39.90;;;19.30;;
14883;SDS011;7534;50.762;7.000;2022-10-18T19:59:07;45.20;;;19.63;;
14883;SDS011;7534;50.762;7.000;2022-10-18T20:01:36;45.07;;;18.73;;
14883;SDS011;7534;50.762;7.000;2022-10-18T20:04:07;42.37;;;19.30;;
14883;SDS011;7534;50.762;7.000;2022-10-18T20:06:38;43.33;;;19.20;;
14883;SDS011;7534;50.762;7.000;2022-10-18T20:09:09;38.93;;;18.80;;
14883;SDS011;7534;50.762;7.000;2022-10-18T20:11:39;41.00;;;19.27;;
14883;SDS011;7534;50.762;7.000;2022-10-18T20:14:13;43.77;;;19.93;;
14883;SDS011;7534;50.762;7.000;2022-10-18T20:16:42;60.07;;;19.97;;
14883;SDS011;7534;50.762;7.000;2022-10-18T20:19:08;45.37;;;19.97;;
14883;SDS011;7534;50.762;7.000;2022-10-18T20:21:45;40.47;;;19.53;;
14883;SDS011;7534;50.762;7.000;2022-10-18T20:27:31;48.60;;;20.53;;
14883;SDS011;7534;50.762;7.000;2022-10-18T20:29:58;39.80;;;20.23;;
14883;SDS011;7534;50.762;7.000;2022-10-18T20:32:33;48.70;;;20.77;;
14883;SDS011;7534;50.762;7.000;2022-10-18T20:38:03;42.87;;;20.50;;
14883;SDS011;7534;50.762;7.000;2022-10-18T20:40:29;40.53;;;19.57;;
14883;SDS011;7534;50.762;7.000;2022-10-18T20:42:58;41.97;;;19.67;;
14883;SDS011;7534;50.762;7.000;2022-10-18T20:45:24;47.30;;;20.63;;
14883;SDS011;7534;50.762;7.000;2022-10-18T20:47:51;40.73;;;20.73;;
14883;SDS011;7534;50.762;7.000;2022-10-18T20:50:16;46.73;;;20.13;;
14883;SDS011;7534;50.762;7.000;2022-10-18T20:52:42;41.17;;;21.27;;
14883;SDS011;7534;50.762;7.000;2022-10-18T20:55:09;45.57;;;21.37;;
14883;SDS011;7534;50.762;7.000;2022-10-18T20:57:35;42.83;;;21.03;;
14883;SDS011;7534;50.762;7.000;2022-10-18T21:00:01;47.43;;;21.80;;
14883;SDS011;7534;50.762;7.000;2022-10-18T21:02:28;44.03;;;20.00;;
14883;SDS011;7534;50.762;7.000;2022-10-18T21:04:53;50.27;;;22.83;;
14883;SDS011;7534;50.762;7.000;2022-10-18T21:07:19;39.87;;;20.73;;
14883;SDS011;7534;50.762;7.000;2022-10-18T21:09:46;41.10;;;20.67;;
14883;SDS011;7534;50.762;7.000;2022-10-18T21:12:12;52.70;;;19.13;;
14883;SDS011;7534;50.762;7.000;2022-10-18T21:14:39;141.63;;;22.33;;
14883;SDS011;7534;50.762;7.000;2022-10-18T21:17:05;44.50;;;19.53;;
14883;SDS011;7534;50.762;7.000;2022-10-18T21:19:32;40.57;;;18.37;;
14883;SDS011;7534;50.762;7.000;2022-10-18T21:21:58;53.10;;;19.17;;
14883;SDS011;7534;50.762;7.000;2022-10-18T21:24:25;42.73;;;18.50;;
14883;SDS011;7534;50.762;7.000;2022-10-18T21:26:51;45.43;;;19.17;;
14883;SDS011;7534;50.762;7.000;2022-10-18T21:29:19;37.20;;;18.63;;
14883;SDS011;7534;50.762;7.000;2022-10-18T21:31:46;45.17;;;19.87;;
14883;SDS011;7534;50.762;7.000;2022-10-18T21:34:14;46.27;;;20.00;;
14883;SDS011;7534;50.762;7.000;2022-10-18T21:36:43;36.50;;;17.17;;
14883;SDS011;7534;50.762;7.000;2022-10-18T21:39:13;48.03;;;19.97;;
14883;SDS011;7534;50.762;7.000;2022-10-18T21:41:46;57.00;;;19.17;;
14883;SDS011;7534;50.762;7.000;2022-10-18T21:44:12;47.90;;;20.23;;
14883;SDS011;7534;50.762;7.000;2022-10-18T21:46:39;45.47;;;17.60;;
14883;SDS011;7534;50.762;7.000;2022-10-18T21:49:07;43.00;;;18.97;;
14883;SDS011;7534;50.762;7.000;2022-10-18T21:51:35;42.43;;;19.43;;
14883;SDS011;7534;50.762;7.000;2022-10-18T21:54:02;38.50;;;18.47;;
14883;SDS011;7534;50.762;7.000;2022-10-18T21:56:29;46.50;;;19.57;;
14883;SDS011;7534;50.762;7.000;2022-10-18T21:58:57;42.70;;;19.57;;
14883;SDS011;7534;50.762;7.000;2022-10-18T22:01:26;42.13;;;19.63;;
14883;SDS011;7534;50.762;7.000;2022-10-18T22:03:59;40.70;;;18.77;;
14883;SDS011;7534;50.762;7.000;2022-10-18T22:06:27;49.00;;;20.30;;
14883;SDS011;7534;50.762;7.000;2022-10-18T22:09:00;50.57;;;19.77;;
14883;SDS011;7534;50.762;7.000;2022-10-18T22:11:35;43.67;;;19.83;;
14883;SDS011;7534;50.762;7.000;2022-10-18T22:14:08;47.87;;;19.57;;
14883;SDS011;7534;50.762;7.000;2022-10-18T22:16:35;43.47;;;19.10;;
14883;SDS011;7534;50.762;7.000;2022-10-18T22:19:02;45.30;;;19.30;;
14883;SDS011;7534;50.762;7.000;2022-10-18T22:21:31;41.70;;;19.57;;
14883;SDS011;7534;50.762;7.000;2022-10-18T22:23:58;45.40;;;19.30;;
14883;SDS011;7534;50.762;7.000;2022-10-18T22:26:30;62.97;;;19.13;;
14883;SDS011;7534;50.762;7.000;2022-10-18T22:29:03;48.10;;;18.80;;
14883;SDS011;7534;50.762;7.000;2022-10-18T22:31:34;39.80;;;17.00;;
14883;SDS011;7534;50.762;7.000;2022-10-18T22:34:05;55.33;;;17.00;;
14883;SDS011;7534;50.762;7.000;2022-10-18T22:36:35;35.17;;;15.83;;
14883;SDS011;7534;50.762;7.000;2022-10-18T22:39:01;33.67;;;16.27;;
14883;SDS011;7534;50.762;7.000;2022-10-18T22:41:29;37.47;;;16.07;;
14883;SDS011;7534;50.762;7.000;2022-10-18T22:43:56;35.77;;;15.67;;
14883;SDS011;7534;50.762;7.000;2022-10-18T22:46:22;41.00;;;17.87;;
14883;SDS011;7534;50.762;7.000;2022-10-18T22:48:49;44.50;;;18.87;;
14883;SDS011;7534;50.762;7.000;2022-10-18T22:51:15;41.67;;;17.87;;
14883;SDS011;7534;50.762;7.000;2022-10-18T22:53:41;44.40;;;17.80;;
14883;SDS011;7534;50.762;7.000;2022-10-18T22:56:14;38.97;;;17.97;;
14883;SDS011;7534;50.762;7.000;2022-10-18T22:58:44;72.23;;;18.00;;
14883;SDS011;7534;50.762;7.000;2022-10-18T23:01:12;38.57;;;17.10;;
14883;SDS011;7534;50.762;7.000;2022-10-18T23:03:40;36.83;;;17.23;;
14883;SDS011;7534;50.762;7.000;2022-10-18T23:06:21;41.17;;;17.87;;
14883;SDS011;7534;50.762;7.000;2022-10-18T23:08:49;38.13;;;16.50;;
14883;SDS011;7534;50.762;7.000;2022-10-18T23:11:18;67.57;;;18.03;;
14883;SDS011;7534;50.762;7.000;2022-10-18T23:13:45;34.67;;;16.30;;
14883;SDS011;7534;50.762;7.000;2022-10-18T23:16:12;70.97;;;17.03;;
14883;SDS011;7534;50.762;7.000;2022-10-18T23:18:38;33.70;;;15.67;;
14883;SDS011;7534;50.762;7.000;2022-10-18T23:21:08;36.73;;;17.13;;
14883;SDS011;7534;50.762;7.000;2022-10-18T23:23:37;42.23;;;17.70;;
14883;SDS011;7534;50.762;7.000;2022-10-18T23:26:17;35.67;;;16.73;;
14883;SDS011;7534;50.762;7.000;2022-10-18T23:28:47;46.73;;;19.10;;
14883;SDS011;7534;50.762;7.000;2022-10-18T23:31:19;46.20;;;18.70;;
14883;SDS011;7534;50.762;7.000;2022-10-18T23:33:50;41.60;;;18.53;;
14883;SDS011;7534;50.762;7.000;2022-10-18T23:36:20;94.53;;;20.27;;
14883;SDS011;7534;50.762;7.000;2022-10-18T23:38:49;39.43;;;16.97;;
14883;SDS011;7534;50.762;7.000;2022-10-18T23:41:15;558.40;;;41.60;;
14883;SDS011;7534;50.762;7.000;2022-10-18T23:43:42;42.83;;;16.50;;
14883;SDS011;7534;50.762;7.000;2022-10-18T23:46:09;42.20;;;17.60;;
14883;SDS011;7534;50.762;7.000;2022-10-18T23:48:36;37.23;;;16.63;;
14883;SDS011;7534;50.762;7.000;2022-10-18T23:51:02;35.77;;;15.90;;
14883;SDS011;7534;50.762;7.000;2022-10-18T23:53:30;42.03;;;17.97;;
14883;SDS011;7534;50.762;7.000;2022-10-18T23:58:33;41.77;;;16.30;;
